createdAt,value
2022-12-28T00:01:31.443Z,25.40
2022-12-28T00:03:03.641Z,26.10
2022-12-28T00:04:35.751Z,21.02
2022-12-28T00:06:08.083Z,20.75
2022-12-28T00:07:40.066Z,24.35
2022-12-28T00:09:13.168Z,23.05
2022-12-28T00:11:08.663Z,23.25
2022-12-28T00:12:37.194Z,22.67
2022-12-28T00:14:09.327Z,25.13
2022-12-28T00:17:13.287Z,21.48
2022-12-28T00:18:45.287Z,20.33
2022-12-28T00:20:17.385Z,20.75
2022-12-28T00:21:49.370Z,21.73
2022-12-28T00:23:21.403Z,24.67
2022-12-28T00:24:53.435Z,22.92
2022-12-28T00:26:27.638Z,22.45
2022-12-28T00:27:59.646Z,21.20
2022-12-28T00:29:31.812Z,23.67
2022-12-28T00:31:04.366Z,24.30
2022-12-28T00:32:36.330Z,21.20
2022-12-28T00:34:08.377Z,23.20
2022-12-28T00:35:40.517Z,22.17
2022-12-28T00:37:13.315Z,19.80
2022-12-28T00:38:45.540Z,23.55
2022-12-28T00:40:23.912Z,25.77
2022-12-28T00:41:56.302Z,24.33
2022-12-28T00:43:28.631Z,24.95
2022-12-28T00:45:00.702Z,22.42
2022-12-28T00:46:32.729Z,25.33
2022-12-28T00:48:05.144Z,24.20
2022-12-28T00:49:37.344Z,22.08
2022-12-28T00:51:14.364Z,22.90
2022-12-28T00:52:46.394Z,20.88
2022-12-28T00:54:18.423Z,21.70
2022-12-28T00:55:50.443Z,19.83
2022-12-28T00:57:25.147Z,19.30
2022-12-28T00:58:58.342Z,19.10
2022-12-28T01:00:33.490Z,16.67
2022-12-28T01:02:05.712Z,15.82
2022-12-28T01:03:37.852Z,16.17
2022-12-28T01:05:10.241Z,15.18
2022-12-28T01:06:42.224Z,14.07
2022-12-28T01:08:14.492Z,18.15
2022-12-28T01:09:46.601Z,20.95
2022-12-28T01:11:21.567Z,25.08
2022-12-28T01:12:54.867Z,23.70
2022-12-28T01:16:01.914Z,25.20
2022-12-28T01:17:34.087Z,27.17
2022-12-28T01:19:07.705Z,28.10
2022-12-28T01:20:40.785Z,26.40
2022-12-28T01:22:15.317Z,24.80
2022-12-28T01:23:48.837Z,27.33
2022-12-28T01:26:52.904Z,23.42
2022-12-28T01:28:24.971Z,26.38
2022-12-28T01:29:57.060Z,22.30
2022-12-28T01:31:29.040Z,23.42
2022-12-28T01:33:01.001Z,20.90
2022-12-28T01:34:33.260Z,14.85
2022-12-28T01:36:09.514Z,15.23
2022-12-28T01:37:41.542Z,13.45
2022-12-28T01:39:14.248Z,13.63
2022-12-28T01:40:46.253Z,12.50
2022-12-28T01:42:19.544Z,11.23
2022-12-28T01:43:59.308Z,11.25
2022-12-28T01:45:31.337Z,14.15
2022-12-28T01:47:08.887Z,13.75
2022-12-28T01:48:46.790Z,12.35
2022-12-28T01:50:22.919Z,10.80
2022-12-28T01:52:01.254Z,15.13
2022-12-28T01:53:33.234Z,12.07
2022-12-28T01:55:15.411Z,13.88
2022-12-28T01:56:47.857Z,14.02
2022-12-28T01:58:26.326Z,13.13
2022-12-28T02:00:05.502Z,13.45
2022-12-28T02:01:38.016Z,12.77
2022-12-28T02:03:26.820Z,12.27
2022-12-28T02:05:00.600Z,11.43
2022-12-28T02:06:33.057Z,13.38
2022-12-28T02:08:11.289Z,11.43
2022-12-28T02:09:44.352Z,12.35
2022-12-28T02:11:37.251Z,12.88
2022-12-28T02:13:10.123Z,11.13
2022-12-28T02:14:43.188Z,11.88
2022-12-28T02:16:15.354Z,12.27
2022-12-28T02:17:47.393Z,11.98
2022-12-28T02:19:22.974Z,10.32
2022-12-28T02:21:09.789Z,12.85
2022-12-28T02:22:59.874Z,10.52
2022-12-28T02:24:43.993Z,13.07
2022-12-28T02:26:34.618Z,10.02
2022-12-28T02:28:38.688Z,12.02
2022-12-28T02:30:12.012Z,9.83
2022-12-28T02:32:00.453Z,12.68
2022-12-28T02:33:43.545Z,12.65
2022-12-28T02:35:29.911Z,10.23
2022-12-28T02:37:17.125Z,11.38
2022-12-28T02:38:53.857Z,11.70
2022-12-28T02:40:58.272Z,13.32
2022-12-28T02:42:30.905Z,13.23
2022-12-28T02:44:03.289Z,13.67
2022-12-28T02:45:58.798Z,13.15
2022-12-28T02:47:49.253Z,11.70
2022-12-28T02:49:44.660Z,12.32
2022-12-28T02:51:48.127Z,10.93
2022-12-28T02:53:35.246Z,14.20
2022-12-28T02:55:44.587Z,20.90
2022-12-28T02:57:28.899Z,32.63
2022-12-28T03:00:57.068Z,31.83
2022-12-28T03:02:40.271Z,24.33
2022-12-28T03:04:33.469Z,23.10
2022-12-28T03:06:40.256Z,30.23
2022-12-28T03:08:22.756Z,20.05
2022-12-28T03:10:06.815Z,14.52
2022-12-28T03:11:41.413Z,22.58
2022-12-28T03:13:45.958Z,21.75
2022-12-28T03:15:34.851Z,16.80
2022-12-28T03:17:26.020Z,19.67
2022-12-28T03:19:22.847Z,21.33
2022-12-28T03:21:14.512Z,16.30
2022-12-28T03:23:05.320Z,37.28
2022-12-28T03:24:56.567Z,19.83
2022-12-28T03:26:48.275Z,15.45
2022-12-28T03:28:20.402Z,27.45
2022-12-28T03:30:20.012Z,33.10
2022-12-28T03:31:52.045Z,24.10
2022-12-28T03:33:24.110Z,19.83
2022-12-28T03:34:56.187Z,19.08
2022-12-28T03:37:04.834Z,18.65
2022-12-28T03:38:48.087Z,16.42
2022-12-28T03:40:48.870Z,14.60
2022-12-28T03:43:02.856Z,16.80
2022-12-28T03:44:35.645Z,14.65
2022-12-28T03:46:46.590Z,14.77
2022-12-28T03:48:18.718Z,15.50
2022-12-28T03:49:50.722Z,15.75
2022-12-28T03:51:24.550Z,12.23
2022-12-28T03:52:59.013Z,14.18
2022-12-28T03:54:31.092Z,11.55
2022-12-28T03:56:17.075Z,11.13
2022-12-28T03:59:20.746Z,9.98
2022-12-28T04:00:52.762Z,10.80
2022-12-28T04:02:24.850Z,10.95
2022-12-28T04:03:56.928Z,10.32
2022-12-28T04:05:28.887Z,11.93
2022-12-28T04:07:00.929Z,9.68
2022-12-28T04:08:33.995Z,9.65
2022-12-28T04:10:06.334Z,11.32
2022-12-28T04:11:38.357Z,10.13
2022-12-28T04:13:10.376Z,10.77
2022-12-28T04:14:42.360Z,9.35
2022-12-28T04:16:15.134Z,13.35
2022-12-28T04:17:47.238Z,8.10
2022-12-28T04:19:19.355Z,9.38
2022-12-28T04:20:51.686Z,10.35
2022-12-28T04:22:23.650Z,10.02
2022-12-28T04:23:55.814Z,10.52
2022-12-28T04:25:27.794Z,12.95
2022-12-28T04:27:00.044Z,14.27
2022-12-28T04:28:33.316Z,18.58
2022-12-28T04:30:06.030Z,19.95
2022-12-28T04:31:38.213Z,18.17
2022-12-28T04:33:10.339Z,18.50
2022-12-28T04:34:48.206Z,18.27
2022-12-28T04:36:20.908Z,20.08
2022-12-28T04:37:52.914Z,18.15
2022-12-28T04:39:24.964Z,16.00
2022-12-28T04:40:57.001Z,14.05
2022-12-28T04:42:29.192Z,11.57
2022-12-28T04:44:03.899Z,13.73
2022-12-28T04:45:36.081Z,13.07
2022-12-28T04:47:08.136Z,14.25
2022-12-28T04:48:40.279Z,13.40
2022-12-28T04:50:12.387Z,14.48
2022-12-28T04:51:47.628Z,13.98
2022-12-28T04:53:19.821Z,14.25
2022-12-28T04:54:51.971Z,12.23
2022-12-28T04:56:25.372Z,15.13
2022-12-28T04:57:57.478Z,12.07
2022-12-28T04:59:29.518Z,12.20
2022-12-28T05:01:10.379Z,11.48
2022-12-28T05:02:46.228Z,12.10
2022-12-28T05:04:18.720Z,13.85
2022-12-28T05:05:50.708Z,15.82
2022-12-28T05:07:22.986Z,18.52
2022-12-28T05:08:56.061Z,24.15
2022-12-28T05:10:28.965Z,25.35
2022-12-28T05:12:00.935Z,17.13
2022-12-28T05:13:33.767Z,15.50
2022-12-28T05:15:06.564Z,18.00
2022-12-28T05:16:39.183Z,17.02
2022-12-28T05:18:11.263Z,26.63
2022-12-28T05:19:43.288Z,31.55
2022-12-28T05:21:17.932Z,33.53
2022-12-28T05:22:50.186Z,28.95
2022-12-28T05:24:22.267Z,23.50
2022-12-28T05:25:54.683Z,21.63
2022-12-28T05:27:26.751Z,17.42
2022-12-28T05:28:59.252Z,13.93
2022-12-28T05:30:31.244Z,12.13
2022-12-28T05:32:03.219Z,12.52
2022-12-28T05:33:36.423Z,12.85
2022-12-28T05:35:09.030Z,14.18
2022-12-28T05:36:41.104Z,11.83
2022-12-28T05:38:13.120Z,13.27
2022-12-28T05:39:45.135Z,13.85
2022-12-28T05:41:19.262Z,12.02
2022-12-28T05:42:51.856Z,12.93
2022-12-28T05:44:23.991Z,12.73
2022-12-28T05:46:01.162Z,12.93
2022-12-28T05:47:33.152Z,12.82
2022-12-28T05:49:08.644Z,12.55
2022-12-28T05:50:41.220Z,12.40
2022-12-28T05:52:13.280Z,12.52
2022-12-28T05:53:45.340Z,11.52
2022-12-28T05:55:17.390Z,11.40
2022-12-28T05:56:51.928Z,10.43
2022-12-28T05:58:23.965Z,10.50
2022-12-28T05:59:56.066Z,10.30
2022-12-28T06:01:33.270Z,14.18
2022-12-28T06:03:05.440Z,10.95
2022-12-28T06:04:37.439Z,10.13
2022-12-28T06:06:14.743Z,11.77
2022-12-28T06:07:46.727Z,16.58
2022-12-28T06:09:18.744Z,14.43
2022-12-28T06:10:50.736Z,14.57
2022-12-28T06:12:22.876Z,10.35
2022-12-28T06:13:55.508Z,10.70
2022-12-28T06:15:27.916Z,9.35
2022-12-28T06:16:59.914Z,12.95
2022-12-28T06:18:32.165Z,12.95
2022-12-28T06:20:04.448Z,12.40
2022-12-28T06:21:38.578Z,11.43
2022-12-28T06:23:10.837Z,9.35
2022-12-28T06:24:42.836Z,8.57
2022-12-28T06:26:17.517Z,8.98
2022-12-28T06:27:49.566Z,8.93
2022-12-28T06:29:21.699Z,11.00
2022-12-28T06:30:54.088Z,9.57
2022-12-28T06:32:26.091Z,11.38
2022-12-28T06:33:59.900Z,10.23
2022-12-28T06:35:31.918Z,9.35
2022-12-28T06:37:04.546Z,9.43
2022-12-28T06:38:36.539Z,9.30
2022-12-28T06:40:09.019Z,11.98
2022-12-28T06:41:41.798Z,12.30
2022-12-28T06:43:13.843Z,8.07
2022-12-28T06:44:45.807Z,7.88
2022-12-28T06:46:19.511Z,8.40
2022-12-28T06:47:51.609Z,8.40
2022-12-28T06:49:23.649Z,10.38
2022-12-28T06:51:04.122Z,9.52
2022-12-28T06:52:36.165Z,7.68
2022-12-28T06:54:09.207Z,9.88
2022-12-28T06:55:41.210Z,8.63
2022-12-28T06:57:13.245Z,9.35
2022-12-28T06:58:46.015Z,8.82
2022-12-28T07:00:21.052Z,8.80
2022-12-28T07:01:53.394Z,8.43
2022-12-28T07:03:25.604Z,9.52
2022-12-28T07:04:57.576Z,9.13
2022-12-28T07:06:30.769Z,9.05
2022-12-28T07:08:07.671Z,8.77
2022-12-28T07:09:42.796Z,8.00
2022-12-28T07:11:18.308Z,9.50
2022-12-28T07:12:50.460Z,9.68
2022-12-28T07:14:22.558Z,9.32
2022-12-28T07:15:54.690Z,8.98
2022-12-28T07:17:26.739Z,9.98
2022-12-28T07:18:59.891Z,10.98
2022-12-28T07:20:37.034Z,12.05
2022-12-28T07:22:12.155Z,9.18
2022-12-28T07:23:44.197Z,8.43
2022-12-28T07:25:16.465Z,13.85
2022-12-28T07:26:48.711Z,16.75
2022-12-28T07:28:20.743Z,11.52
2022-12-28T07:29:55.733Z,13.30
2022-12-28T07:31:30.321Z,10.00
2022-12-28T07:33:02.268Z,9.85
2022-12-28T07:34:34.322Z,9.13
2022-12-28T07:36:08.587Z,10.15
2022-12-28T07:37:40.597Z,8.85
2022-12-28T07:39:12.709Z,8.85
2022-12-28T07:40:44.731Z,9.18
2022-12-28T07:42:16.883Z,11.18
2022-12-28T07:43:49.775Z,11.82
2022-12-28T07:45:21.821Z,12.57
2022-12-28T07:46:53.812Z,11.18
2022-12-28T07:48:25.801Z,12.07
2022-12-28T07:49:57.796Z,9.93
2022-12-28T07:51:35.309Z,8.90
2022-12-28T07:53:07.390Z,9.43
2022-12-28T07:54:39.400Z,13.55
2022-12-28T07:56:12.059Z,14.48
2022-12-28T07:57:44.076Z,17.70
2022-12-28T07:59:16.082Z,14.57
2022-12-28T08:02:21.048Z,13.02
2022-12-28T08:03:56.645Z,14.50
2022-12-28T08:05:28.771Z,14.95
2022-12-28T08:07:00.962Z,12.55
2022-12-28T08:08:38.250Z,12.52
2022-12-28T08:10:10.484Z,14.75
2022-12-28T08:11:44.818Z,15.93
2022-12-28T08:13:17.061Z,22.25
2022-12-28T08:14:49.044Z,20.70
2022-12-28T08:16:22.515Z,26.30
2022-12-28T08:17:55.843Z,15.85
2022-12-28T08:19:27.999Z,17.17
2022-12-28T08:21:05.029Z,16.85
2022-12-28T08:22:37.035Z,16.13
2022-12-28T08:24:10.713Z,29.60
2022-12-28T08:25:45.664Z,44.85
2022-12-28T08:27:18.089Z,34.13
2022-12-28T08:28:53.095Z,19.42
2022-12-28T08:30:25.204Z,21.30
2022-12-28T08:31:57.250Z,21.13
2022-12-28T08:33:29.356Z,26.30
2022-12-28T08:35:01.463Z,23.85
2022-12-28T08:36:33.724Z,26.95
2022-12-28T08:38:05.781Z,32.00
2022-12-28T08:39:37.777Z,30.17
2022-12-28T08:41:13.993Z,26.23
2022-12-28T08:42:46.012Z,30.17
2022-12-28T08:44:18.053Z,36.42
2022-12-28T08:46:18.406Z,31.92
2022-12-28T08:47:50.626Z,26.83
2022-12-28T08:49:22.660Z,25.63
2022-12-28T08:50:55.761Z,21.13
2022-12-28T08:52:27.974Z,28.10
2022-12-28T08:54:00.449Z,23.02
2022-12-28T08:55:33.109Z,23.17
2022-12-28T08:57:05.212Z,18.07
2022-12-28T08:58:40.694Z,17.52
2022-12-28T09:00:13.225Z,16.85
2022-12-28T09:01:46.585Z,18.90
2022-12-28T09:06:26.593Z,16.02
2022-12-28T09:07:59.818Z,17.42
2022-12-28T09:09:32.101Z,16.55
2022-12-28T09:11:08.637Z,15.00
2022-12-28T09:12:40.652Z,14.80
2022-12-28T09:14:20.703Z,15.52
2022-12-28T09:16:00.012Z,16.67
2022-12-28T09:17:32.104Z,19.60
2022-12-28T09:19:06.553Z,28.73
2022-12-28T09:20:43.130Z,15.38
2022-12-28T09:22:18.114Z,17.02
2022-12-28T09:23:50.208Z,16.73
2022-12-28T09:25:22.250Z,17.67
2022-12-28T09:26:55.744Z,13.88
2022-12-28T09:29:59.537Z,17.75
2022-12-28T09:31:33.232Z,21.00
2022-12-28T09:33:23.813Z,17.48
2022-12-28T09:34:55.896Z,18.75
2022-12-28T09:36:42.267Z,19.05
2022-12-28T09:38:14.461Z,14.80
2022-12-28T09:39:47.851Z,12.60
2022-12-28T09:41:40.915Z,13.20
2022-12-28T09:43:13.403Z,14.55
2022-12-28T09:44:51.120Z,12.60
2022-12-28T09:46:23.424Z,13.13
2022-12-28T09:48:01.173Z,13.45
2022-12-28T09:49:41.031Z,13.10
2022-12-28T09:51:13.092Z,9.88
2022-12-28T09:53:03.811Z,11.38
2022-12-28T09:54:35.931Z,13.63
2022-12-28T09:56:26.018Z,12.48
2022-12-28T09:57:59.877Z,9.15
2022-12-28T09:59:34.721Z,8.85
2022-12-28T10:01:10.856Z,9.13
2022-12-28T10:02:43.580Z,10.52
2022-12-28T10:04:15.730Z,13.05
2022-12-28T10:05:48.277Z,11.65
2022-12-28T10:07:20.619Z,8.30
2022-12-28T10:10:32.156Z,11.95
2022-12-28T10:12:18.344Z,8.93
2022-12-28T10:14:01.956Z,9.15
2022-12-28T10:15:34.076Z,8.65
2022-12-28T10:17:10.701Z,9.27
2022-12-28T10:18:42.864Z,8.90
2022-12-28T10:20:21.317Z,9.13
2022-12-28T10:22:27.580Z,9.30
2022-12-28T10:25:54.412Z,9.40
2022-12-28T10:27:31.787Z,8.30
2022-12-28T10:29:03.929Z,8.15
2022-12-28T10:30:46.301Z,7.13
2022-12-28T10:32:21.173Z,8.68
2022-12-28T10:33:53.400Z,6.90
2022-12-28T10:35:31.056Z,7.05
2022-12-28T10:37:15.604Z,8.13
2022-12-28T10:38:53.263Z,8.88
2022-12-28T10:40:28.352Z,12.55
2022-12-28T10:42:01.294Z,12.57
2022-12-28T10:43:35.253Z,9.38
2022-12-28T10:45:19.992Z,8.10
2022-12-28T10:46:56.254Z,12.45
2022-12-28T10:48:32.389Z,10.68
2022-12-28T10:52:21.257Z,9.57
2022-12-28T10:53:58.264Z,8.18
2022-12-28T10:55:33.062Z,10.18
2022-12-28T10:57:05.605Z,10.55
2022-12-28T10:58:39.742Z,11.20
2022-12-28T11:00:20.587Z,11.80
2022-12-28T11:01:52.775Z,9.40
2022-12-28T11:03:30.889Z,9.75
2022-12-28T11:05:04.907Z,9.27
2022-12-28T11:06:51.397Z,10.88
2022-12-28T11:08:23.464Z,10.23
2022-12-28T11:10:32.867Z,10.38
2022-12-28T11:12:22.651Z,9.43
2022-12-28T11:14:13.084Z,9.35
2022-12-28T11:15:47.859Z,10.50
2022-12-28T11:17:27.991Z,10.15
2022-12-28T11:19:00.634Z,10.40
2022-12-28T11:20:34.797Z,10.52
2022-12-28T11:22:10.945Z,10.43
2022-12-28T11:23:44.483Z,9.73
2022-12-28T11:25:18.601Z,9.25
2022-12-28T11:26:51.118Z,10.55
2022-12-28T11:28:23.574Z,9.03
2022-12-28T11:29:56.088Z,8.93
2022-12-28T11:31:34.740Z,9.70
2022-12-28T11:33:10.334Z,19.73
2022-12-28T11:34:42.346Z,13.80
2022-12-28T11:36:19.192Z,12.10
2022-12-28T11:37:59.739Z,10.18
2022-12-28T11:39:33.015Z,10.60
2022-12-28T11:41:05.198Z,8.85
2022-12-28T11:42:39.413Z,11.88
2022-12-28T11:44:41.693Z,10.27
2022-12-28T11:46:22.768Z,11.43
2022-12-28T11:48:32.896Z,11.23
2022-12-28T11:50:38.650Z,11.52
2022-12-28T11:52:31.260Z,9.32
2022-12-28T11:54:39.079Z,9.35
2022-12-28T11:56:16.674Z,11.00
2022-12-28T11:57:48.821Z,10.23
2022-12-28T11:59:29.495Z,10.15
2022-12-28T12:01:02.718Z,9.55
2022-12-28T12:02:41.747Z,11.50
2022-12-28T12:04:19.995Z,9.15
2022-12-28T12:05:52.700Z,9.48
2022-12-28T12:07:31.498Z,8.40
2022-12-28T12:09:04.293Z,8.77
2022-12-28T12:10:39.160Z,9.23
2022-12-28T12:12:17.802Z,9.27
2022-12-28T12:13:51.406Z,9.07
2022-12-28T12:15:40.353Z,8.80
2022-12-28T12:17:43.131Z,9.75
2022-12-28T12:19:29.335Z,7.72
2022-12-28T12:21:13.300Z,7.80
2022-12-28T12:22:55.977Z,9.38
2022-12-28T12:24:33.094Z,9.45
2022-12-28T12:26:21.601Z,11.10
2022-12-28T12:28:09.148Z,9.27
2022-12-28T12:29:44.744Z,9.32
2022-12-28T12:31:26.211Z,9.63
2022-12-28T12:33:04.602Z,9.15
2022-12-28T12:34:45.960Z,8.75
2022-12-28T12:36:38.808Z,8.00
2022-12-28T12:38:26.645Z,8.57
2022-12-28T12:40:10.677Z,8.15
2022-12-28T12:43:30.876Z,7.82
2022-12-28T12:45:24.141Z,10.13
2022-12-28T12:47:47.289Z,8.52
2022-12-28T12:49:25.132Z,8.30
2022-12-28T12:51:20.319Z,9.05
2022-12-28T12:53:19.883Z,8.35
2022-12-28T12:55:13.785Z,7.10
2022-12-28T12:56:53.999Z,9.10
2022-12-28T12:58:29.911Z,10.75
2022-12-28T13:00:19.490Z,9.95
2022-12-28T13:02:16.644Z,9.27
2022-12-28T13:47:48.054Z,10.23
2022-12-28T13:49:20.651Z,8.98
2022-12-28T13:50:53.947Z,8.93
2022-12-28T13:52:29.437Z,9.00
2022-12-28T13:54:01.557Z,7.93
2022-12-28T13:55:43.376Z,10.43
2022-12-28T13:57:45.216Z,9.95
2022-12-28T13:59:11.190Z,11.10
2022-12-28T14:00:50.530Z,10.73
2022-12-28T14:02:23.894Z,9.75
2022-12-28T14:05:55.532Z,10.40
2022-12-28T14:07:29.704Z,10.82
2022-12-28T14:09:05.698Z,12.05
2022-12-28T14:10:40.391Z,16.27
2022-12-28T14:12:13.533Z,10.65
2022-12-28T14:13:45.891Z,10.73
2022-12-28T14:15:18.618Z,12.15
2022-12-28T14:16:50.859Z,13.05
2022-12-28T14:18:22.984Z,11.77
2022-12-28T14:19:56.340Z,11.18
2022-12-28T14:21:36.711Z,9.60
2022-12-28T14:23:25.003Z,11.15
2022-12-28T14:25:13.375Z,9.57
2022-12-28T14:27:00.419Z,9.65
2022-12-28T14:28:36.277Z,8.68
2022-12-28T14:30:25.605Z,9.75
2022-12-28T14:32:02.646Z,9.73
2022-12-28T14:33:37.498Z,10.15
2022-12-28T14:35:18.532Z,11.30
2022-12-28T14:36:53.050Z,10.23
2022-12-28T14:38:30.735Z,20.27
2022-12-28T14:40:05.874Z,19.08
2022-12-28T14:41:41.217Z,15.70
2022-12-28T14:43:34.474Z,11.20
2022-12-28T14:46:07.691Z,11.23
2022-12-28T14:47:39.984Z,14.85
2022-12-28T14:49:44.604Z,14.52
2022-12-28T14:51:17.430Z,10.82
2022-12-28T14:52:51.130Z,12.50
2022-12-28T14:54:27.034Z,10.45
2022-12-28T14:56:09.105Z,11.73
2022-12-28T14:57:43.494Z,8.90
2022-12-28T14:59:24.064Z,9.75
2022-12-28T15:01:06.359Z,10.20
2022-12-28T15:02:41.430Z,9.93
2022-12-28T15:04:40.737Z,8.95
2022-12-28T15:06:12.935Z,9.35
2022-12-28T15:07:45.615Z,10.60
2022-12-28T15:09:18.602Z,8.90
2022-12-28T15:10:59.320Z,9.70
2022-12-28T15:12:31.282Z,10.70
2022-12-28T15:14:03.384Z,9.55
2022-12-28T15:15:35.670Z,13.07
2022-12-28T15:17:08.562Z,21.70
2022-12-28T15:18:47.255Z,28.50
2022-12-28T15:20:19.444Z,32.30
2022-12-28T15:21:51.499Z,42.83
2022-12-28T15:23:24.624Z,33.60
2022-12-28T15:24:56.703Z,31.25
2022-12-28T15:26:28.880Z,33.75
2022-12-28T15:28:01.008Z,33.60
2022-12-28T15:30:04.288Z,25.65
2022-12-28T15:31:25.207Z,21.95
2022-12-28T15:32:57.400Z,22.48
2022-12-28T15:34:29.587Z,19.90
2022-12-28T15:36:17.275Z,18.33
2022-12-28T15:37:50.069Z,15.80
2022-12-28T15:39:22.089Z,13.85
2022-12-28T15:40:56.727Z,14.45
2022-12-28T15:42:28.856Z,16.40
2022-12-28T15:44:00.913Z,14.23
2022-12-28T15:45:33.117Z,21.17
2022-12-28T15:47:05.284Z,31.85
2022-12-28T15:48:38.633Z,51.65
2022-12-28T15:50:13.622Z,43.00
2022-12-28T15:51:46.359Z,57.88
2022-12-28T15:53:18.445Z,57.47
2022-12-28T15:56:24.706Z,57.45
2022-12-28T15:59:29.126Z,73.20
2022-12-28T16:01:03.717Z,70.88
2022-12-28T16:02:36.090Z,61.55
2022-12-28T16:04:08.237Z,73.45
2022-12-28T16:05:40.325Z,34.60
2022-12-28T16:07:12.455Z,30.25
2022-12-28T16:08:44.514Z,36.83
2022-12-28T16:10:16.614Z,36.63
2022-12-28T16:11:54.690Z,34.83
2022-12-28T16:13:27.292Z,38.70
2022-12-28T16:14:59.352Z,28.13
2022-12-28T16:16:35.050Z,29.20
2022-12-28T16:18:07.136Z,23.52
2022-12-28T16:19:39.198Z,22.65
2022-12-28T16:21:11.894Z,21.63
2022-12-28T16:22:43.913Z,20.73
2022-12-28T16:24:16.060Z,24.77
2022-12-28T16:25:51.174Z,23.08
2022-12-28T16:27:23.260Z,27.17
2022-12-28T16:28:55.542Z,23.98
2022-12-28T16:30:27.556Z,21.20
2022-12-28T16:32:00.841Z,25.88
2022-12-28T16:33:33.972Z,15.35
2022-12-28T16:35:06.213Z,23.38
2022-12-28T16:36:38.294Z,22.48
2022-12-28T16:38:10.335Z,27.25
2022-12-28T16:39:42.426Z,24.42
2022-12-28T16:41:14.646Z,27.95
2022-12-28T16:42:46.733Z,26.08
2022-12-28T16:44:21.242Z,27.98
2022-12-28T16:45:53.488Z,32.42
2022-12-28T16:47:25.568Z,35.08
2022-12-28T16:49:00.814Z,29.27
2022-12-28T16:50:33.671Z,26.45
2022-12-28T16:52:05.964Z,40.97
2022-12-28T16:53:38.197Z,33.15
2022-12-28T16:55:10.267Z,40.05
2022-12-28T16:56:43.035Z,27.42
2022-12-28T16:58:15.078Z,30.20
2022-12-28T16:59:47.052Z,20.45
2022-12-28T17:01:19.319Z,23.45
2022-12-28T17:02:51.657Z,26.40
2022-12-28T17:04:23.993Z,25.60
2022-12-28T17:05:56.020Z,24.25
2022-12-28T17:07:28.027Z,22.60
2022-12-28T17:10:42.165Z,28.48
2022-12-28T17:12:14.193Z,23.48
2022-12-28T17:13:46.257Z,17.48
2022-12-28T17:15:18.644Z,23.23
2022-12-28T17:16:50.747Z,25.20
2022-12-28T17:18:22.834Z,26.92
2022-12-28T17:19:54.882Z,37.05
2022-12-28T17:21:28.369Z,37.33
2022-12-28T17:24:32.383Z,57.63
2022-12-28T17:26:04.587Z,33.55
2022-12-28T17:27:36.670Z,27.92
2022-12-28T17:29:08.915Z,30.08
2022-12-28T17:30:40.936Z,30.83
2022-12-28T17:32:13.019Z,36.78
2022-12-28T17:33:51.571Z,35.35
2022-12-28T17:35:24.412Z,26.80
2022-12-28T17:36:56.500Z,16.90
2022-12-28T17:38:29.601Z,16.85
2022-12-28T17:40:01.706Z,16.00
2022-12-28T17:41:33.916Z,13.40
2022-12-28T17:43:05.916Z,11.73
2022-12-28T17:44:38.455Z,13.88
2022-12-28T17:46:10.570Z,13.97
2022-12-28T17:47:43.149Z,13.32
2022-12-28T17:49:16.015Z,15.60
2022-12-28T17:50:48.523Z,22.15
2022-12-28T17:52:22.641Z,27.73
2022-12-28T17:53:56.031Z,14.35
2022-12-28T17:55:28.132Z,11.50
2022-12-28T17:57:00.267Z,13.50
2022-12-28T17:58:34.962Z,12.27
2022-12-28T18:00:07.664Z,13.77
2022-12-28T18:01:39.833Z,20.92
2022-12-28T18:03:11.960Z,12.15
2022-12-28T18:04:44.040Z,11.68
2022-12-28T18:06:16.133Z,12.82
2022-12-28T18:07:48.261Z,12.45
2022-12-28T18:09:25.671Z,12.15
2022-12-28T18:10:59.827Z,15.60
2022-12-28T18:12:31.921Z,14.63
2022-12-28T18:14:04.026Z,22.73
2022-12-28T18:15:36.394Z,26.63
2022-12-28T18:17:08.449Z,12.02
2022-12-28T18:18:40.577Z,14.13
2022-12-28T18:20:12.690Z,12.73
2022-12-28T18:21:45.245Z,14.70
2022-12-28T18:23:17.361Z,17.73
2022-12-28T18:24:50.894Z,14.60
2022-12-28T18:27:55.663Z,12.70
2022-12-28T18:29:27.731Z,15.45
2022-12-28T18:31:02.350Z,12.27
2022-12-28T18:32:34.792Z,12.50
2022-12-28T18:34:07.684Z,12.30
2022-12-28T18:35:39.663Z,13.70
2022-12-28T18:37:11.833Z,10.52
2022-12-28T18:38:44.521Z,14.88
2022-12-28T18:40:16.850Z,15.57
2022-12-28T18:41:48.947Z,16.88
2022-12-28T18:43:21.422Z,19.05
2022-12-28T18:44:53.472Z,14.45
2022-12-28T18:46:25.609Z,13.68
2022-12-28T18:47:57.707Z,13.48
2022-12-28T18:49:29.892Z,13.80
2022-12-28T18:51:10.588Z,11.80
2022-12-28T18:52:42.819Z,12.02
2022-12-28T18:54:14.911Z,11.13
2022-12-28T18:55:47.026Z,12.63
2022-12-28T18:57:19.422Z,11.98
2022-12-28T18:58:53.167Z,12.38
2022-12-28T19:00:25.288Z,12.63
2022-12-28T19:02:06.933Z,13.48
2022-12-28T19:03:40.590Z,14.15
2022-12-28T19:05:12.728Z,13.88
2022-12-28T19:06:45.114Z,11.93
2022-12-28T19:08:17.069Z,10.95
2022-12-28T19:10:13.431Z,14.32
2022-12-28T19:11:45.879Z,14.27
2022-12-28T19:13:18.330Z,16.00
2022-12-28T19:14:50.307Z,12.23
2022-12-28T19:16:30.585Z,12.45
2022-12-28T19:18:03.361Z,10.93
2022-12-28T19:19:35.460Z,14.02
2022-12-28T19:21:32.373Z,12.80
2022-12-28T19:23:04.498Z,12.50
2022-12-28T19:24:36.515Z,13.63
2022-12-28T19:26:08.619Z,13.88
2022-12-28T19:27:40.755Z,14.05
2022-12-28T19:29:13.821Z,13.85
2022-12-28T19:30:45.893Z,15.80
2022-12-28T19:32:17.998Z,11.73
2022-12-28T19:33:50.148Z,16.02
2022-12-28T19:35:22.295Z,14.85
2022-12-28T19:36:54.365Z,14.25
2022-12-28T19:38:26.784Z,12.88
2022-12-28T19:39:58.973Z,13.60
2022-12-28T19:41:31.200Z,13.27
2022-12-28T19:43:04.399Z,11.10
2022-12-28T19:44:36.426Z,11.85
2022-12-28T19:46:12.785Z,13.32
2022-12-28T19:47:44.957Z,13.13
2022-12-28T19:49:16.973Z,9.93
2022-12-28T19:50:49.177Z,10.55
2022-12-28T19:52:21.156Z,11.32
2022-12-28T19:53:54.610Z,9.20
2022-12-28T21:00:12.321Z,20.63
2022-12-28T21:01:44.634Z,22.43
2022-12-28T21:03:16.707Z,19.88
2022-12-28T21:04:48.784Z,17.60
2022-12-28T21:06:20.778Z,20.25
2022-12-28T21:07:52.854Z,20.83
2022-12-28T21:09:24.947Z,20.00
2022-12-28T21:10:57.242Z,21.30
2022-12-28T21:12:29.411Z,19.55
2022-12-28T21:14:01.683Z,25.27
2022-12-28T21:15:33.760Z,28.35
2022-12-28T21:17:05.821Z,26.17
2022-12-28T21:18:38.072Z,28.92
2022-12-28T21:20:10.784Z,26.55
2022-12-28T21:21:42.888Z,19.27
2022-12-28T21:23:15.628Z,21.27
2022-12-28T21:24:47.637Z,21.15
2022-12-28T21:26:21.221Z,23.98
2022-12-28T21:31:03.326Z,24.25
2022-12-28T21:32:35.332Z,25.60
2022-12-28T21:36:00.059Z,24.58
2022-12-28T21:37:35.244Z,26.63
2022-12-28T21:39:07.330Z,27.83
2022-12-28T21:40:39.351Z,23.15
2022-12-28T21:42:11.443Z,26.40
2022-12-28T21:43:43.532Z,26.75
2022-12-28T21:45:15.701Z,27.80
2022-12-28T21:46:52.072Z,31.10
2022-12-28T21:48:24.154Z,41.45
2022-12-28T21:49:56.360Z,27.90
2022-12-28T21:51:38.935Z,31.83
2022-12-28T21:53:11.011Z,30.33
2022-12-28T21:54:43.051Z,25.13
2022-12-28T21:56:15.077Z,24.27
2022-12-28T21:57:51.655Z,26.60
2022-12-28T21:59:25.621Z,24.05
2022-12-28T22:01:17.177Z,24.92
2022-12-28T22:03:09.679Z,24.70
2022-12-28T22:05:03.226Z,22.33
2022-12-28T22:06:35.629Z,24.52
2022-12-28T22:08:26.054Z,22.35
2022-12-28T22:10:16.550Z,20.52
2022-12-28T22:12:07.123Z,21.90
2022-12-28T22:13:39.709Z,22.75
2022-12-28T22:15:38.821Z,19.67
2022-12-28T22:17:14.291Z,22.17
2022-12-28T22:19:03.530Z,24.13
2022-12-28T22:20:37.588Z,26.60
2022-12-28T22:22:09.604Z,23.13
2022-12-28T22:23:41.805Z,19.77
2022-12-28T22:25:14.176Z,19.30
2022-12-28T22:26:46.742Z,21.40
2022-12-28T22:28:18.901Z,20.98
2022-12-28T22:29:50.971Z,21.80
2022-12-28T22:31:23.005Z,27.75
2022-12-28T22:32:55.419Z,27.77
2022-12-28T22:34:27.418Z,22.02
2022-12-28T22:36:14.392Z,25.08
2022-12-28T22:37:46.431Z,25.67
2022-12-28T22:39:18.493Z,26.05
2022-12-28T22:40:59.971Z,19.77
2022-12-28T22:42:32.299Z,20.67
2022-12-28T22:44:04.350Z,20.70
2022-12-28T22:45:36.446Z,22.70
2022-12-28T22:47:08.994Z,23.25
2022-12-28T22:48:41.087Z,24.15
2022-12-28T22:50:15.094Z,21.17
2022-12-28T22:51:48.100Z,19.50
2022-12-28T22:53:20.171Z,23.75
2022-12-28T22:54:52.140Z,27.45
2022-12-28T22:56:24.173Z,27.27
2022-12-28T22:57:56.232Z,26.23
2022-12-28T22:59:28.284Z,22.17
2022-12-28T23:01:06.665Z,18.80
2022-12-28T23:02:38.929Z,17.98
2022-12-28T23:04:11.046Z,22.38
2022-12-28T23:05:51.071Z,19.95
2022-12-28T23:07:23.153Z,19.38
2022-12-28T23:08:55.178Z,20.98
2022-12-28T23:10:27.227Z,24.75